createdAt,value
2022-08-07T00:00:54.733Z,8.30
2022-08-07T00:03:26.265Z,8.37
2022-08-07T00:06:05.428Z,7.80
2022-08-07T00:08:36.963Z,8.30
2022-08-07T00:11:14.190Z,9.27
2022-08-07T00:13:48.280Z,9.27
2022-08-07T00:16:21.610Z,8.40
2022-08-07T00:18:56.179Z,8.10
2022-08-07T00:21:55.293Z,8.57
2022-08-07T00:24:12.893Z,9.17
2022-08-07T00:26:49.264Z,8.30
2022-08-07T00:29:31.478Z,7.80
2022-08-07T00:32:01.943Z,7.30
2022-08-07T00:34:30.542Z,7.60
2022-08-07T00:37:00.527Z,6.90
2022-08-07T00:39:29.555Z,7.23
2022-08-07T00:42:02.517Z,6.40
2022-08-07T00:44:33.704Z,7.33
2022-08-07T00:47:02.070Z,7.73
2022-08-07T00:50:20.121Z,7.60
2022-08-07T00:52:20.002Z,6.97
2022-08-07T00:54:53.684Z,7.40
2022-08-07T00:57:26.012Z,8.67
2022-08-07T00:59:54.638Z,8.33
2022-08-07T01:02:28.664Z,8.80
2022-08-07T01:04:58.548Z,8.13
2022-08-07T01:07:29.264Z,7.43
2022-08-07T01:10:04.893Z,8.93
2022-08-07T01:12:53.118Z,9.10
2022-08-07T01:15:35.905Z,10.00
2022-08-07T01:18:17.146Z,9.83
2022-08-07T01:20:59.234Z,8.33
2022-08-07T01:23:35.727Z,8.43
2022-08-07T01:26:07.953Z,7.90
2022-08-07T01:28:40.936Z,7.27
2022-08-07T01:31:15.515Z,7.80
2022-08-07T01:33:55.675Z,7.87
2022-08-07T01:36:33.857Z,7.43
2022-08-07T01:39:09.824Z,7.50
2022-08-07T01:41:55.037Z,7.60
2022-08-07T01:44:27.661Z,7.40
2022-08-07T01:46:55.890Z,7.20
2022-08-07T01:49:24.574Z,7.20
2022-08-07T01:52:02.099Z,7.47
2022-08-07T01:54:37.626Z,7.63
2022-08-07T01:57:08.690Z,7.13
2022-08-07T01:59:55.582Z,6.07
2022-08-07T02:03:01.116Z,7.07
2022-08-07T02:05:43.141Z,6.23
2022-08-07T02:08:17.427Z,6.80
2022-08-07T02:10:55.210Z,5.70
2022-08-07T02:13:56.358Z,5.70
2022-08-07T02:16:13.256Z,5.77
2022-08-07T02:18:47.081Z,6.87
2022-08-07T02:21:16.722Z,6.00
2022-08-07T02:23:45.801Z,5.07
2022-08-07T02:26:32.412Z,4.90
2022-08-07T02:29:03.494Z,7.13
2022-08-07T02:31:32.895Z,5.90
2022-08-07T02:34:03.810Z,5.23
2022-08-07T02:36:41.249Z,5.73
2022-08-07T02:39:17.495Z,5.97
2022-08-07T02:42:00.355Z,5.10
2022-08-07T02:44:34.387Z,5.20
2022-08-07T02:47:04.006Z,4.83
2022-08-07T02:49:59.060Z,5.53
2022-08-07T02:52:30.961Z,6.80
2022-08-07T02:55:02.087Z,5.37
2022-08-07T02:57:35.186Z,6.40
2022-08-07T03:00:11.157Z,5.80
2022-08-07T03:02:52.007Z,6.40
2022-08-07T03:05:25.040Z,6.23
2022-08-07T03:08:07.370Z,6.10
2022-08-07T03:10:46.232Z,6.03
2022-08-07T03:13:19.674Z,6.90
2022-08-07T03:15:56.463Z,5.70
2022-08-07T03:18:34.314Z,5.57
2022-08-07T03:21:08.783Z,5.90
2022-08-07T03:24:19.694Z,5.83
2022-08-07T03:26:32.015Z,6.13
2022-08-07T03:29:03.546Z,6.87
2022-08-07T03:31:42.364Z,6.43
2022-08-07T03:34:18.911Z,6.90
2022-08-07T03:36:52.913Z,7.07
2022-08-07T03:39:45.764Z,6.43
2022-08-07T03:42:10.579Z,7.03
2022-08-07T03:44:40.443Z,6.47
2022-08-07T03:47:23.699Z,6.70
2022-08-07T03:49:53.619Z,5.73
2022-08-07T03:52:26.343Z,6.50
2022-08-07T03:54:58.943Z,6.60
2022-08-07T03:58:32.542Z,5.50
2022-08-07T04:00:30.517Z,6.30
2022-08-07T04:03:04.058Z,6.90
2022-08-07T04:05:40.635Z,6.30
2022-08-07T04:08:12.403Z,6.40
2022-08-07T04:10:42.386Z,7.30
2022-08-07T04:13:15.072Z,6.70
2022-08-07T04:15:48.996Z,6.60
2022-08-07T04:18:58.180Z,6.50
2022-08-07T04:21:07.335Z,7.30
2022-08-07T04:23:43.486Z,6.77
2022-08-07T04:26:28.439Z,7.37
2022-08-07T04:28:56.956Z,7.43
2022-08-07T04:31:38.777Z,7.67
2022-08-07T04:34:23.945Z,7.13
2022-08-07T04:36:55.629Z,7.60
2022-08-07T04:39:25.927Z,6.20
2022-08-07T04:41:57.502Z,6.37
2022-08-07T04:44:26.446Z,6.73
2022-08-07T04:47:08.200Z,7.17
2022-08-07T04:49:57.509Z,6.27
2022-08-07T04:52:33.082Z,6.10
2022-08-07T04:55:15.256Z,6.07
2022-08-07T04:58:23.667Z,5.90
2022-08-07T05:00:48.898Z,6.43
2022-08-07T05:04:06.888Z,6.93
2022-08-07T05:06:19.195Z,5.77
2022-08-07T05:09:00.731Z,6.10
2022-08-07T05:11:56.984Z,6.43
2022-08-07T05:14:56.077Z,5.50
2022-08-07T05:17:17.503Z,5.70
2022-08-07T05:20:09.999Z,6.20
2022-08-07T05:22:39.705Z,6.27
2022-08-07T05:25:11.548Z,5.70
2022-08-07T05:28:02.911Z,5.17
2022-08-07T05:30:44.216Z,6.20
2022-08-07T05:33:18.162Z,6.73
2022-08-07T05:35:51.810Z,5.90
2022-08-07T05:39:00.672Z,5.53
2022-08-07T05:41:14.365Z,5.93
2022-08-07T05:44:08.254Z,6.00
2022-08-07T05:46:32.968Z,5.40
2022-08-07T05:49:01.368Z,5.40
2022-08-07T05:51:43.139Z,5.90
2022-08-07T05:54:30.745Z,4.97
2022-08-07T05:57:04.208Z,5.30
2022-08-07T05:59:39.036Z,6.40
2022-08-07T06:02:29.170Z,6.23
2022-08-07T06:05:03.493Z,5.03
2022-08-07T06:08:14.135Z,5.90
2022-08-07T06:10:23.149Z,4.90
2022-08-07T06:12:51.326Z,5.83
2022-08-07T06:15:20.485Z,5.87
2022-08-07T06:17:53.918Z,5.90
2022-08-07T06:20:25.429Z,5.67
2022-08-07T06:23:45.754Z,6.60
2022-08-07T06:26:03.191Z,5.00
2022-08-07T06:28:32.079Z,6.43
2022-08-07T06:31:01.639Z,6.40
2022-08-07T06:33:33.083Z,5.80
2022-08-07T06:36:12.123Z,5.83
2022-08-07T06:38:58.581Z,4.77
2022-08-07T06:42:01.028Z,5.33
2022-08-07T06:44:31.138Z,5.50
2022-08-07T06:47:11.980Z,4.97
2022-08-07T06:49:51.612Z,4.80
2022-08-07T06:52:31.383Z,4.80
2022-08-07T06:55:34.341Z,5.57
2022-08-07T06:57:59.250Z,5.10
2022-08-07T07:00:29.383Z,5.40
2022-08-07T07:03:00.879Z,5.10
2022-08-07T07:06:04.074Z,5.87
2022-08-07T07:08:27.349Z,5.60
2022-08-07T07:10:57.843Z,4.70
2022-08-07T07:13:56.154Z,5.20
2022-08-07T07:16:27.553Z,4.70
2022-08-07T07:19:11.178Z,5.30
2022-08-07T07:22:04.958Z,5.60
2022-08-07T07:24:43.076Z,4.90
2022-08-07T07:27:35.862Z,6.20
2022-08-07T07:30:26.542Z,4.70
2022-08-07T07:33:06.744Z,5.50
2022-08-07T07:35:43.960Z,4.30
2022-08-07T07:38:25.852Z,6.00
2022-08-07T07:41:01.856Z,5.67
2022-08-07T07:44:13.874Z,5.47
2022-08-07T07:46:37.011Z,5.20
2022-08-07T07:50:32.840Z,7.53
2022-08-07T07:52:04.553Z,7.07
2022-08-07T07:54:34.600Z,5.30
2022-08-07T07:57:06.755Z,4.90
2022-08-07T07:59:52.433Z,5.30
2022-08-07T08:02:35.690Z,5.07
2022-08-07T08:05:05.511Z,4.80
2022-08-07T08:07:59.523Z,4.90
2022-08-07T08:10:37.670Z,4.20
2022-08-07T08:13:10.642Z,3.40
2022-08-07T08:15:58.641Z,4.40
2022-08-07T08:18:37.293Z,3.70
2022-08-07T08:21:55.815Z,4.10
2022-08-07T08:24:45.730Z,4.53
2022-08-07T08:27:16.738Z,3.77
2022-08-07T08:29:55.461Z,4.57
2022-08-07T08:32:38.393Z,3.90
2022-08-07T08:35:09.082Z,3.13
2022-08-07T08:38:00.882Z,3.67
2022-08-07T08:40:31.158Z,3.47
2022-08-07T08:43:05.971Z,3.00
2022-08-07T08:45:42.086Z,3.13
2022-08-07T08:48:38.533Z,2.60
2022-08-07T08:51:14.308Z,2.80
2022-08-07T08:53:59.974Z,3.07
2022-08-07T08:56:34.347Z,2.97
2022-08-07T08:59:13.916Z,2.90
2022-08-07T09:01:49.569Z,3.33
2022-08-07T09:04:28.751Z,4.07
2022-08-07T09:07:03.547Z,5.63
2022-08-07T09:09:40.955Z,3.70
2022-08-07T09:12:19.926Z,3.87
2022-08-07T09:16:24.254Z,2.80
2022-08-07T09:18:08.738Z,3.33
2022-08-07T09:20:57.976Z,3.00
2022-08-07T09:24:33.528Z,2.73
2022-08-07T09:26:29.165Z,2.70
2022-08-07T09:30:06.115Z,2.30
2022-08-07T09:31:58.051Z,2.30
2022-08-07T09:34:27.860Z,2.33
2022-08-07T09:37:03.366Z,2.20
2022-08-07T09:39:55.524Z,3.20
2022-08-07T09:42:42.339Z,2.57
2022-08-07T09:47:25.644Z,2.70
2022-08-07T09:48:15.182Z,2.37
2022-08-07T09:50:55.877Z,2.43
2022-08-07T09:53:27.235Z,2.33
2022-08-07T09:56:46.436Z,2.63
2022-08-07T09:59:46.315Z,2.60
2022-08-07T10:02:56.797Z,2.50
2022-08-07T10:06:00.748Z,2.27
2022-08-07T10:09:00.295Z,2.57
2022-08-07T10:12:02.692Z,2.37
2022-08-07T10:15:03.122Z,2.50
2022-08-07T10:18:01.874Z,3.23
2022-08-07T10:20:39.637Z,3.23
2022-08-07T10:24:06.811Z,2.87
2022-08-07T10:26:34.949Z,2.37
2022-08-07T10:29:30.474Z,2.40
2022-08-07T10:32:37.050Z,3.00
2022-08-07T10:35:12.434Z,2.23
2022-08-07T10:38:09.811Z,2.43
2022-08-07T10:40:44.806Z,2.60
2022-08-07T10:43:19.280Z,2.50
2022-08-07T10:45:58.685Z,2.97
2022-08-07T10:48:37.725Z,2.20
2022-08-07T10:51:16.452Z,2.10
2022-08-07T10:54:08.782Z,2.40
2022-08-07T10:56:44.730Z,2.07
2022-08-07T10:59:22.055Z,2.83
2022-08-07T11:02:05.110Z,2.67
2022-08-07T11:04:52.165Z,2.23
2022-08-07T11:07:56.170Z,1.93
2022-08-07T11:10:20.264Z,2.50
2022-08-07T11:13:02.246Z,2.80
2022-08-07T11:15:36.752Z,2.77
2022-08-07T11:18:12.715Z,2.63
2022-08-07T11:20:44.948Z,2.87
2022-08-07T11:23:30.723Z,3.03
2022-08-07T11:26:11.306Z,2.40
2022-08-07T11:28:53.355Z,2.13
2022-08-07T11:31:29.012Z,2.40
2022-08-07T11:34:10.230Z,2.20
2022-08-07T11:36:45.378Z,2.83
2022-08-07T11:39:59.424Z,2.53
2022-08-07T11:42:29.784Z,2.70
2022-08-07T11:45:08.789Z,2.67
2022-08-07T11:47:59.435Z,2.20
2022-08-07T11:50:57.497Z,2.30
2022-08-07T11:53:36.841Z,2.20
2022-08-07T11:56:26.641Z,2.40
2022-08-07T12:00:08.371Z,2.80
2022-08-07T12:02:04.787Z,2.20
2022-08-07T12:05:01.953Z,3.20
2022-08-07T12:07:38.939Z,2.30
2022-08-07T12:10:15.675Z,3.10
2022-08-07T12:12:46.968Z,2.17
2022-08-07T12:15:46.749Z,3.33
2022-08-07T12:18:15.982Z,2.07
2022-08-07T12:21:02.309Z,2.20
2022-08-07T12:24:07.758Z,2.77
2022-08-07T12:26:40.583Z,2.10
2022-08-07T12:29:20.327Z,1.70
2022-08-07T12:32:03.706Z,2.00
2022-08-07T12:34:37.547Z,2.30
2022-08-07T12:37:16.786Z,2.10
2022-08-07T12:39:52.642Z,2.10
2022-08-07T12:42:27.298Z,2.03
2022-08-07T12:44:57.422Z,2.47
2022-08-07T12:47:30.864Z,2.87
2022-08-07T12:50:39.015Z,2.60
2022-08-07T12:52:58.843Z,2.73
2022-08-07T12:55:40.713Z,2.20
2022-08-07T12:58:13.075Z,2.40
2022-08-07T13:01:01.930Z,2.60
2022-08-07T13:04:02.278Z,3.40
2022-08-07T13:06:54.329Z,2.73
2022-08-07T13:10:37.065Z,2.37
2022-08-07T13:12:43.175Z,3.00
2022-08-07T13:15:29.781Z,3.03
2022-08-07T13:18:08.740Z,2.40
2022-08-07T13:20:44.605Z,2.77
2022-08-07T13:24:01.118Z,2.30
2022-08-07T13:26:16.023Z,2.40
2022-08-07T13:28:48.510Z,2.53
2022-08-07T13:31:22.532Z,2.47
2022-08-07T13:34:30.827Z,2.27
2022-08-07T13:36:52.547Z,3.17
2022-08-07T13:40:33.337Z,2.30
2022-08-07T13:42:24.792Z,2.93
2022-08-07T13:45:11.480Z,2.47
2022-08-07T13:48:04.300Z,2.63
2022-08-07T13:50:44.747Z,2.33
2022-08-07T13:53:24.320Z,2.60
2022-08-07T13:55:54.798Z,2.77
2022-08-07T13:58:50.457Z,2.70
2022-08-07T14:01:27.836Z,2.30
2022-08-07T14:04:08.567Z,2.23
2022-08-07T14:06:39.094Z,2.30
2022-08-07T14:09:09.891Z,2.20
2022-08-07T14:11:53.650Z,2.70
2022-08-07T14:14:44.089Z,2.43
2022-08-07T14:18:13.098Z,2.30
2022-08-07T14:20:42.220Z,2.20
2022-08-07T14:23:10.503Z,2.20
2022-08-07T14:25:47.924Z,2.50
2022-08-07T14:28:17.002Z,2.40
2022-08-07T14:33:44.824Z,2.00
2022-08-07T14:36:15.218Z,2.30
2022-08-07T14:38:50.320Z,3.00
2022-08-07T14:41:33.688Z,2.33
2022-08-07T14:44:16.316Z,2.83
2022-08-07T14:46:48.669Z,3.00
2022-08-07T14:49:56.508Z,3.33
2022-08-07T14:55:05.105Z,2.90
2022-08-07T14:57:54.826Z,2.53
2022-08-07T15:00:31.227Z,2.47
2022-08-07T15:03:16.594Z,2.90
2022-08-07T15:05:54.635Z,3.10
2022-08-07T15:08:50.417Z,2.60
2022-08-07T15:11:54.258Z,2.77
2022-08-07T15:14:18.304Z,2.90
2022-08-07T15:20:30.607Z,2.73
2022-08-07T15:22:33.424Z,2.70
2022-08-07T15:25:19.485Z,2.50
2022-08-07T15:42:44.297Z,3.17
2022-08-07T15:44:52.149Z,2.80
2022-08-07T15:47:21.181Z,2.43
2022-08-07T15:50:12.192Z,2.43
2022-08-07T15:53:09.130Z,2.43
2022-08-07T15:55:53.518Z,2.50
2022-08-07T15:58:37.152Z,2.80
2022-08-07T16:01:09.067Z,2.27
2022-08-07T16:03:46.380Z,2.30
2022-08-07T16:06:16.612Z,2.33
2022-08-07T16:08:47.763Z,2.60
2022-08-07T16:11:41.478Z,1.83
2022-08-07T16:14:17.286Z,2.37
2022-08-07T16:17:16.094Z,2.20
2022-08-07T16:20:34.302Z,2.20
2022-08-07T16:23:12.602Z,2.77
2022-08-07T16:26:05.103Z,2.07
2022-08-07T16:30:07.734Z,2.40
2022-08-07T16:31:58.284Z,2.60
2022-08-07T16:34:40.306Z,3.20
2022-08-07T16:38:03.447Z,2.60
2022-08-07T16:40:30.921Z,2.23
2022-08-07T16:43:08.907Z,3.00
2022-08-07T16:47:07.794Z,2.10
2022-08-07T16:50:20.855Z,2.57
2022-08-07T16:52:52.749Z,2.60
2022-08-07T16:55:47.004Z,2.40
2022-08-07T16:58:23.708Z,2.30
2022-08-07T17:01:15.886Z,2.13
2022-08-07T17:03:59.358Z,2.63
2022-08-07T17:06:48.120Z,2.60
2022-08-07T17:10:07.153Z,2.70
2022-08-07T17:12:44.766Z,2.63
2022-08-07T17:15:28.819Z,2.97
2022-08-07T17:18:18.550Z,3.27
2022-08-07T17:20:47.915Z,2.97
2022-08-07T17:23:46.185Z,2.53
2022-08-07T17:26:22.702Z,2.33
2022-08-07T17:29:04.655Z,2.80
2022-08-07T17:31:44.405Z,2.70
2022-08-07T17:34:57.111Z,1.80
2022-08-07T17:38:06.001Z,2.10
2022-08-07T17:40:30.148Z,2.10
2022-08-07T17:43:17.981Z,2.50
2022-08-07T17:45:54.130Z,2.17
2022-08-07T17:48:30.782Z,2.50
2022-08-07T17:51:02.262Z,2.17
2022-08-07T17:54:01.202Z,2.10
2022-08-07T17:56:33.298Z,2.07
2022-08-07T17:59:09.099Z,2.30
2022-08-07T18:01:45.094Z,2.00
2022-08-07T18:04:31.213Z,1.50
2022-08-07T18:07:20.200Z,1.50
2022-08-07T18:10:06.824Z,1.97
2022-08-07T18:12:50.705Z,1.57
2022-08-07T18:15:32.887Z,1.37
2022-08-07T18:19:02.350Z,1.90
2022-08-07T18:21:11.783Z,1.80
2022-08-07T18:23:59.640Z,1.60
2022-08-07T18:26:42.886Z,1.50
2022-08-07T18:30:07.511Z,1.47
2022-08-07T18:32:22.888Z,1.33
2022-08-07T18:35:11.004Z,1.80
2022-08-07T18:38:55.040Z,1.50
2022-08-07T18:41:08.355Z,1.53
2022-08-07T18:43:50.948Z,1.30
2022-08-07T18:46:35.906Z,1.47
2022-08-07T18:50:31.271Z,1.20
2022-08-07T18:52:34.997Z,1.67
2022-08-07T18:55:40.289Z,1.43
2022-08-07T18:58:19.018Z,1.60
2022-08-07T19:00:53.789Z,1.60
2022-08-07T19:03:37.702Z,1.50
2022-08-07T19:06:10.707Z,1.50
2022-08-07T19:08:59.978Z,1.50
2022-08-07T19:12:04.540Z,1.50
2022-08-07T19:15:00.854Z,1.70
2022-08-07T19:18:02.392Z,1.67
2022-08-07T19:20:39.000Z,1.40
2022-08-07T19:23:59.290Z,1.40
2022-08-07T19:26:22.930Z,1.37
2022-08-07T19:30:55.191Z,1.73
2022-08-07T19:32:08.035Z,1.57
2022-08-07T19:34:40.428Z,1.70
2022-08-07T19:37:17.307Z,1.60
2022-08-07T19:39:58.006Z,1.90
2022-08-07T19:42:40.259Z,1.73
2022-08-07T19:46:05.930Z,1.80
2022-08-07T19:48:03.604Z,1.70
2022-08-07T19:50:44.438Z,1.70
2022-08-07T19:54:31.491Z,1.50
2022-08-07T19:56:13.594Z,1.90
2022-08-07T19:58:58.390Z,1.97
2022-08-07T20:01:52.724Z,1.47
2022-08-07T20:04:31.345Z,1.40
2022-08-07T20:07:09.229Z,1.10
2022-08-07T20:10:33.984Z,1.47
2022-08-07T20:12:38.023Z,1.63
2022-08-07T20:15:15.597Z,1.73
2022-08-07T20:18:01.581Z,1.50
2022-08-07T20:20:33.430Z,1.67
2022-08-07T20:23:23.274Z,1.77
2022-08-07T20:25:53.799Z,1.90
2022-08-07T20:28:29.186Z,1.77
2022-08-07T20:30:58.551Z,1.90
2022-08-07T20:33:36.811Z,1.83
2022-08-07T20:36:08.872Z,1.70
2022-08-07T20:38:59.714Z,1.80
2022-08-07T20:41:28.914Z,1.80
2022-08-07T20:44:12.649Z,1.43
2022-08-07T20:46:44.662Z,1.53
2022-08-07T20:49:59.168Z,1.90
2022-08-07T20:52:07.855Z,1.60
2022-08-07T20:54:45.691Z,1.70
2022-08-07T20:57:27.936Z,1.80
2022-08-07T21:00:06.902Z,1.80
2022-08-07T21:02:58.066Z,1.40
2022-08-07T21:05:50.797Z,1.63
2022-08-07T21:08:36.911Z,2.20
2022-08-07T21:11:10.847Z,2.00
2022-08-07T21:13:43.809Z,2.00
2022-08-07T21:16:21.371Z,1.93
2022-08-07T21:18:54.608Z,1.30
2022-08-07T21:21:27.264Z,2.30
2022-08-07T21:24:03.206Z,1.80
2022-08-07T21:26:42.852Z,2.10
2022-08-07T21:29:18.533Z,1.53
2022-08-07T21:32:46.645Z,2.03
2022-08-07T21:35:00.491Z,2.40
2022-08-07T21:37:58.832Z,1.80
2022-08-07T21:40:28.973Z,1.80
2022-08-07T21:43:10.793Z,2.10
2022-08-07T21:46:09.938Z,1.77
2022-08-07T21:48:43.742Z,1.60
2022-08-07T21:51:24.915Z,1.80
2022-08-07T21:53:55.131Z,1.30
2022-08-07T21:56:37.743Z,2.23
2022-08-07T21:59:21.679Z,1.63
2022-08-07T22:02:11.131Z,1.67
2022-08-07T22:04:53.628Z,2.03
2022-08-07T22:07:57.740Z,1.77
2022-08-07T22:10:20.090Z,2.30
2022-08-07T22:12:52.823Z,1.80
2022-08-07T22:16:41.561Z,1.70
2022-08-07T22:18:20.352Z,2.23
2022-08-07T22:20:55.524Z,2.13
2022-08-07T22:23:31.665Z,1.83
2022-08-07T22:26:05.956Z,1.60
2022-08-07T22:28:42.355Z,1.63
2022-08-07T22:31:55.987Z,2.50
2022-08-07T22:34:16.861Z,2.13
2022-08-07T22:36:54.630Z,1.90
2022-08-07T22:39:28.669Z,1.93
2022-08-07T22:42:03.032Z,3.87
2022-08-07T22:44:58.339Z,2.43
2022-08-07T22:48:01.490Z,2.20
2022-08-07T22:51:11.111Z,1.80
2022-08-07T22:54:07.001Z,1.77
2022-08-07T22:56:42.139Z,1.80
2022-08-07T22:59:41.453Z,2.00
2022-08-07T23:02:32.036Z,2.20
2022-08-07T23:06:08.903Z,1.83
2022-08-07T23:08:23.827Z,1.60
2022-08-07T23:11:10.046Z,2.50
2022-08-07T23:14:12.270Z,1.90
2022-08-07T23:16:55.930Z,2.07
2022-08-07T23:19:59.819Z,2.50
2022-08-07T23:22:45.195Z,1.80
2022-08-07T23:25:28.227Z,2.10
2022-08-07T23:28:29.798Z,2.20
2022-08-07T23:31:18.833Z,2.80
2022-08-07T23:34:37.998Z,2.30
2022-08-07T23:38:01.137Z,1.97
2022-08-07T23:40:37.430Z,2.37
2022-08-07T23:43:43.488Z,2.03
2022-08-07T23:46:33.854Z,2.60
2022-08-07T23:49:50.546Z,2.30
2022-08-07T23:53:00.214Z,2.40
2022-08-07T23:55:52.547Z,2.40
2022-08-07T23:58:21.236Z,2.00
